Time;durP1;ratioP1;P1;durP2;ratioP2;P2;SDS_P1;SDS_P2;PMS_P1;PMS_P2;Temp;Humidity;BMP_temperature;BMP_pressure;BME280_temperature;BME280_humidity;BME280_pressure;Samples;Min_cycle;Max_cycle;Signal;HPM_P1;HPM_P2
2021/06/19 00:02:07;;;;;;;6.38;4.95;;;;;;;18.52;100.00;96742.91;5007162;28;20038;-66
2021/06/19 00:04:34;;;;;;;11.88;6.00;;;;;;;18.51;100.00;96744.13;5007901;28;20030;-65
2021/06/19 00:07:00;;;;;;;6.00;5.40;;;;;;;18.58;100.00;96749.59;5007506;28;20069;-66
2021/06/19 00:09:26;;;;;;;9.88;5.72;;;;;;;17.66;100.00;96626.31;5005710;28;20026;-67
2021/06/19 00:11:52;;;;;;;8.30;6.13;;;;;;;18.53;100.00;96758.50;5006807;28;20397;-67
2021/06/19 00:14:18;;;;;;;10.30;6.40;;;;;;;18.18;100.00;96682.63;5007414;28;20076;-67
2021/06/19 00:16:44;;;;;;;10.13;5.43;;;;;;;18.62;100.00;96741.91;5006194;28;20042;-66
2021/06/19 00:19:09;;;;;;;6.90;5.90;;;;;;;18.59;100.00;96737.16;5007063;28;20030;-66
2021/06/19 00:21:35;;;;;;;10.30;6.70;;;;;;;18.60;100.00;96741.56;5006747;28;20034;-67
2021/06/19 00:24:00;;;;;;;8.23;6.15;;;;;;;18.46;100.00;96713.78;5007300;28;20029;-66
2021/06/19 00:26:25;;;;;;;12.25;6.05;;;;;;;18.69;100.00;96738.97;5021595;28;20420;-66
2021/06/19 00:28:51;;;;;;;8.63;5.85;;;;;;;18.34;100.00;96686.31;5006557;28;20052;-67
2021/06/19 00:31:16;;;;;;;9.50;5.97;;;;;;;18.64;100.00;96742.28;5006492;28;20045;-66
2021/06/19 00:33:42;;;;;;;6.53;5.43;;;;;;;18.30;100.00;96705.22;5006363;28;20444;-67
2021/06/19 00:36:08;;;;;;;12.00;6.20;;;;;;;18.45;100.00;96728.22;5006231;28;20132;-65
2021/06/19 00:38:33;;;;;;;7.18;6.10;;;;;;;18.48;100.00;96733.75;5006663;28;20112;-67
2021/06/19 00:40:59;;;;;;;7.25;6.15;;;;;;;18.61;100.00;96736.72;5021541;28;20041;-66
2021/06/19 00:43:24;;;;;;;7.82;6.20;;;;;;;18.44;100.00;96727.44;5006763;28;20041;-66
2021/06/19 00:45:50;;;;;;;8.13;5.95;;;;;;;17.99;100.00;96656.13;5006435;28;20026;-67
2021/06/19 00:48:15;;;;;;;7.78;5.70;;;;;;;18.22;100.00;96702.97;5006755;28;20038;-66
2021/06/19 00:50:41;;;;;;;10.32;5.90;;;;;;;18.02;100.00;96663.69;5004386;28;20037;-66
2021/06/19 00:53:07;;;;;;;7.50;5.40;;;;;;;18.24;100.00;96720.94;5006593;28;20046;-67
2021/06/19 00:55:33;;;;;;;7.47;5.38;;;;;;;18.57;100.00;96741.63;5006175;28;20033;-67
2021/06/19 00:58:01;;;;;;;8.75;5.30;;;;;;;18.52;100.00;96739.31;5005883;28;20046;-66
2021/06/19 01:00:26;;;;;;;7.82;5.25;;;;;;;18.56;100.00;96746.44;5006175;28;20037;-67
2021/06/19 01:02:56;;;;;;;10.32;6.88;;;;;;;18.30;100.00;96738.88;5006446;28;20412;-66
2021/06/19 01:05:22;;;;;;;9.23;6.07;;;;;;;18.41;100.00;96733.09;5004278;28;20026;-66
2021/06/19 01:07:48;;;;;;;9.38;6.30;;;;;;;18.15;100.00;96698.28;5004620;28;20049;-65
2021/06/19 01:10:14;;;;;;;12.40;6.78;;;;;;;17.88;100.00;96658.34;5020159;28;20420;-67
2021/06/19 01:12:45;;;;;;;8.20;6.15;;;;;;;18.07;100.00;96691.22;5006138;28;20045;-66
2021/06/19 01:15:11;;;;;;;12.30;7.22;;;;;;;18.30;100.00;96738.88;5000641;28;20050;-66
2021/06/19 01:17:37;;;;;;;10.45;7.20;;;;;;;17.69;100.00;96675.88;5006096;28;20046;-66
2021/06/19 01:20:02;;;;;;;11.27;7.15;;;;;;;18.15;100.00;96751.56;5006062;28;20095;-66
2021/06/19 01:22:28;;;;;;;9.93;7.07;;;;;;;18.04;100.00;96742.53;5005535;28;20169;-66
2021/06/19 01:24:56;;;;;;;8.90;7.72;;;;;;;17.70;100.00;96716.69;5005632;28;20075;-65
2021/06/19 01:27:25;;;;;;;13.43;8.25;;;;;;;17.58;100.00;96697.66;5005232;28;20045;-66
2021/06/19 01:29:50;;;;;;;10.63;7.63;;;;;;;17.27;100.00;96642.94;5005726;28;20034;-66
2021/06/19 01:32:16;;;;;;;8.93;7.80;;;;;;;17.78;100.00;96740.59;5005464;28;20040;-66
2021/06/19 01:34:41;;;;;;;10.63;7.28;;;;;;;15.91;100.00;96440.34;5004985;28;20068;-65
2021/06/19 01:37:07;;;;;;;9.68;8.00;;;;;;;17.74;100.00;96739.84;5003586;28;20049;-65
2021/06/19 01:39:32;;;;;;;12.48;8.38;;;;;;;17.73;100.00;96743.88;5005664;28;20479;-66
2021/06/19 01:41:58;;;;;;;10.40;7.93;;;;;;;17.81;100.00;96745.34;5003531;28;20295;-66
2021/06/19 01:44:23;;;;;;;9.32;8.00;;;;;;;17.49;100.00;96717.81;5003796;28;20025;-66
2021/06/19 01:46:51;;;;;;;12.93;9.07;;;;;;;17.73;100.00;96749.47;5005148;28;20037;-66
2021/06/19 01:49:16;;;;;;;15.52;9.10;;;;;;;17.71;100.00;96752.69;5005671;28;20092;-65
2021/06/19 01:51:42;;;;;;;16.17;8.27;;;;;;;17.28;100.00;96678.09;5005079;28;20042;-65
2021/06/19 01:54:08;;;;;;;8.90;7.97;;;;;;;17.81;100.00;96759.34;5003810;28;20036;-65
2021/06/19 01:56:33;;;;;;;11.68;7.32;;;;;;;17.84;100.00;96761.28;5005060;28;20041;-65
2021/06/19 01:58:59;;;;;;;10.30;7.10;;;;;;;17.18;100.00;96653.88;5005084;28;20480;-65
2021/06/19 02:01:24;;;;;;;10.18;6.43;;;;;;;17.43;100.00;96701.88;5004929;28;20125;-65
2021/06/19 02:03:50;;;;;;;10.00;6.38;;;;;;;17.82;100.00;96758.13;5005473;28;20144;-67
2021/06/19 02:06:16;;;;;;;9.35;5.57;;;;;;;17.90;100.00;96754.00;5005486;28;20033;-66
2021/06/19 02:08:47;;;;;;;8.32;5.63;;;;;;;17.72;100.00;96731.09;5005430;28;20113;-65
2021/06/19 02:11:13;;;;;;;9.88;6.38;;;;;;;17.22;100.00;96686.19;5002991;28;20045;-65
2021/06/19 02:13:38;;;;;;;9.43;6.10;;;;;;;17.70;100.00;96755.91;5005131;28;20034;-64
2021/06/19 02:16:05;;;;;;;7.38;6.43;;;;;;;17.73;100.00;96749.47;5002833;28;20464;-65
2021/06/19 02:18:30;;;;;;;11.13;6.90;;;;;;;17.67;100.00;96749.13;5004872;28;20052;-64
2021/06/19 02:20:56;;;;;;;11.07;6.82;;;;;;;17.64;100.00;96740.81;5004557;28;20025;-64
2021/06/19 02:23:24;;;;;;;10.88;7.03;;;;;;;17.51;100.00;96703.41;5003910;28;20471;-65
2021/06/19 02:25:53;;;;;;;7.25;6.50;;;;;;;17.60;100.00;96729.66;5004425;28;20060;-65
2021/06/19 02:28:25;;;;;;;9.10;7.72;;;;;;;17.16;100.00;96667.50;5004406;28;20061;-65
2021/06/19 02:30:55;;;;;;;13.20;8.18;;;;;;;17.64;100.00;96721.19;5004049;28;20022;-65
2021/06/19 02:33:22;;;;;;;11.25;7.78;;;;;;;17.64;100.00;96712.78;5004754;28;20042;-65
2021/06/19 02:35:49;;;;;;;11.40;8.73;;;;;;;17.27;100.00;96668.13;5004171;28;20041;-65
2021/06/19 02:38:15;;;;;;;11.70;8.55;;;;;;;17.63;100.00;96722.41;5004771;28;20158;-65
2021/06/19 02:40:42;;;;;;;11.88;7.55;;;;;;;17.69;100.00;96718.69;5004183;28;20022;-64
2021/06/19 02:43:09;;;;;;;13.07;8.13;;;;;;;17.64;100.00;96718.41;5003211;28;20432;-66
2021/06/19 02:45:35;;;;;;;8.55;6.60;;;;;;;17.60;100.00;96717.66;5002366;28;20060;-65
2021/06/19 02:48:01;;;;;;;11.80;6.20;;;;;;;17.65;100.00;96719.97;5004712;28;20583;-65
2021/06/19 02:50:31;;;;;;;7.38;4.97;;;;;;;17.67;100.00;96718.31;5002194;28;20038;-66
2021/06/19 02:52:59;;;;;;;8.40;6.35;;;;;;;17.69;100.00;96720.69;5004627;28;20641;-65
2021/06/19 02:55:27;;;;;;;8.48;5.97;;;;;;;17.60;100.00;96706.44;5002465;28;20073;-64
2021/06/19 02:57:53;;;;;;;12.73;5.97;;;;;;;17.69;100.00;96715.09;5004412;28;20132;-65
2021/06/19 03:00:20;;;;;;;8.63;5.72;;;;;;;17.69;100.00;96720.69;5003886;28;20121;-65
2021/06/19 03:02:46;;;;;;;6.57;5.45;;;;;;;17.63;100.00;96691.59;5004211;28;20034;-66
2021/06/19 03:05:14;;;;;;;9.70;6.22;;;;;;;17.66;100.00;96701.94;5003864;28;20515;-65
2021/06/19 03:07:40;;;;;;;9.52;6.97;;;;;;;17.57;100.00;96701.69;5002319;28;20033;-65
2021/06/19 03:10:07;;;;;;;10.63;7.22;;;;;;;17.54;100.00;96700.53;5002269;28;20524;-65
2021/06/19 03:12:33;;;;;;;10.50;6.65;;;;;;;17.08;100.00;96632.44;5001901;28;20100;-66
2021/06/19 03:14:58;;;;;;;11.80;6.03;;;;;;;17.51;100.00;96700.59;5002497;28;20038;-66
2021/06/19 03:17:24;;;;;;;8.38;5.18;;;;;;;17.52;100.00;96682.56;5002008;28;20505;-66
2021/06/19 03:19:49;;;;;;;14.60;7.10;;;;;;;17.52;100.00;96704.97;5004254;28;20542;-66
2021/06/19 03:22:15;;;;;;;6.50;5.88;;;;;;;17.47;100.00;96697.03;5002014;28;20065;-67
2021/06/19 03:24:42;;;;;;;9.00;5.05;;;;;;;17.44;100.00;96695.06;5002313;28;20421;-64
2021/06/19 03:27:09;;;;;;;8.40;4.93;;;;;;;17.40;100.00;96694.34;5001969;28;20627;-65
2021/06/19 03:29:35;;;;;;;9.98;7.78;;;;;;;17.41;100.00;96698.72;5004084;28;20072;-66
2021/06/19 03:32:02;;;;;;;10.32;6.50;;;;;;;17.50;100.00;96701.78;5003714;28;20529;-65
2021/06/19 03:34:28;;;;;;;9.48;6.07;;;;;;;17.34;100.00;96704.44;5006307;28;20058;-66
2021/06/19 03:37:00;;;;;;;10.05;6.22;;;;;;;17.42;100.00;96722.72;5005671;28;20505;-66
2021/06/19 03:39:34;;;;;;;9.05;5.63;;;;;;;17.30;100.00;96703.69;5006238;28;20046;-66
2021/06/19 03:42:01;;;;;;;9.77;5.65;;;;;;;17.35;100.00;96722.81;5007488;28;20584;-66
2021/06/19 03:44:27;;;;;;;8.68;5.43;;;;;;;17.31;100.00;96716.47;5008242;28;20041;-65
2021/06/19 03:46:53;;;;;;;7.75;5.10;;;;;;;17.36;100.00;96708.38;5007431;28;20572;-66
2021/06/19 03:49:19;;;;;;;8.55;5.38;;;;;;;17.39;100.00;96685.13;5007653;28;20025;-65
2021/06/19 03:51:46;;;;;;;7.80;4.43;;;;;;;17.54;100.00;96719.34;5005511;28;20038;-66
2021/06/19 03:54:11;;;;;;;7.78;5.43;;;;;;;17.12;100.00;96726.31;5008051;28;20560;-65
2021/06/19 03:56:37;;;;;;;6.55;5.82;;;;;;;16.79;100.00;96634.84;5007330;28;20046;-64
2021/06/19 03:59:03;;;;;;;7.75;5.50;;;;;;;17.11;100.00;96667.97;5005589;28;20061;-65
2021/06/19 04:01:28;;;;;;;10.02;6.65;;;;;;;17.30;100.00;96703.69;5006924;28;20034;-66
2021/06/19 04:03:54;;;;;;;7.97;6.70;;;;;;;17.02;100.00;96646.13;5007250;28;20037;-66
2021/06/19 04:06:19;;;;;;;10.00;6.30;;;;;;;17.64;100.00;96713.56;5005488;28;20025;-65
2021/06/19 04:08:45;;;;;;;29.40;15.68;;;;;;;17.54;100.00;96713.75;5007115;28;20034;-63
2021/06/19 04:11:13;;;;;;;28.27;19.88;;;;;;;17.56;100.00;96698.09;5006574;28;20040;-64
2021/06/19 04:13:39;;;;;;;11.95;8.93;;;;;;;17.77;100.00;96710.97;5007366;28;20034;-65
2021/06/19 04:16:05;;;;;;;11.82;6.60;;;;;;;17.40;100.00;96641.13;5006603;28;20037;-66
2021/06/19 04:18:30;;;;;;;8.50;6.25;;;;;;;18.00;100.00;96713.78;5005539;28;20049;-66
2021/06/19 04:20:56;;;;;;;7.22;6.13;;;;;;;17.93;100.00;96708.28;5006938;28;20507;-63
2021/06/19 04:23:21;;;;;;;10.55;5.70;;;;;;;17.97;100.00;96693.00;5007061;28;20420;-65
2021/06/19 04:25:47;;;;;;;7.70;5.53;;;;;;;18.17;100.00;96695.06;5004797;28;20038;-65
2021/06/19 04:28:12;;;;;;;9.57;5.05;;;;;;;18.21;99.55;96713.41;5006677;28;20057;-65
2021/06/19 04:30:38;;;;;;;8.15;4.68;;;;;;;18.26;99.35;96712.91;5006268;28;20030;-65
2021/06/19 04:33:04;;;;;;;6.00;5.18;;;;;;;18.14;100.00;96707.94;5005418;28;20092;-66
2021/06/19 04:35:29;;;;;;;9.13;4.90;;;;;;;18.46;98.35;96707.38;5006075;28;20034;-65
2021/06/19 04:37:55;;;;;;;5.68;4.72;;;;;;;18.60;97.09;96707.09;5005138;28;20421;-65
2021/06/19 04:43:08;;;;;;;7.85;4.88;;;;;;;18.85;94.89;96724.22;5006918;28;20034;-65
2021/06/19 04:45:35;;;;;;;11.70;5.97;;;;;;;18.93;95.77;96709.63;5005573;28;20034;-66
2021/06/19 04:48:03;;;;;;;11.65;6.32;;;;;;;19.04;96.86;96709.38;5006443;28;20073;-66
2021/06/19 04:50:33;;;;;;;13.55;7.30;;;;;;;19.16;94.66;96717.94;5006378;28;20520;-67
2021/06/19 04:53:00;;;;;;;10.55;6.30;;;;;;;19.27;94.93;96715.69;5006520;28;20050;-65
2021/06/19 04:55:27;;;;;;;5.45;4.53;;;;;;;19.12;93.80;96672.31;5006145;28;20428;-65
2021/06/19 04:57:56;;;;;;;5.15;4.65;;;;;;;19.49;92.89;96713.19;5006481;28;20480;-65
2021/06/19 05:00:26;;;;;;;12.48;11.18;;;;;;;19.55;92.42;96712.25;5003886;28;20032;-65
2021/06/19 05:02:52;;;;;;;46.53;41.67;;;;;;;19.15;92.03;96705.13;5006122;28;20283;-64
2021/06/19 05:05:18;;;;;;;22.15;17.40;;;;;;;19.41;93.60;96718.19;5003892;28;20475;-65
2021/06/19 05:07:44;;;;;;;14.45;12.63;;;;;;;19.21;93.80;96657.66;5006297;28;20038;-66
2021/06/19 05:10:11;;;;;;;21.55;15.15;;;;;;;19.52;91.98;96707.50;5006136;28;20030;-67
2021/06/19 05:12:42;;;;;;;10.30;9.38;;;;;;;19.69;92.27;96694.28;5006354;28;20467;-66
2021/06/19 05:15:08;;;;;;;10.23;9.10;;;;;;;19.79;92.24;96715.69;5004226;28;20025;-66
2021/06/19 05:17:34;;;;;;;10.48;8.40;;;;;;;19.82;90.76;96708.41;5005545;28;20517;-66
2021/06/19 05:19:59;;;;;;;13.25;10.98;;;;;;;20.00;89.78;96714.38;5005674;28;20041;-66
2021/06/19 05:22:25;;;;;;;14.52;10.00;;;;;;;20.22;89.25;96707.00;5005325;28;20118;-65
2021/06/19 05:24:51;;;;;;;8.88;7.78;;;;;;;20.17;89.44;96718.81;5005640;28;20025;-66
2021/06/19 05:27:17;;;;;;;9.15;6.97;;;;;;;19.26;93.10;96671.97;5005589;28;20042;-65
2021/06/19 05:29:42;;;;;;;10.23;6.55;;;;;;;17.72;91.98;96373.25;5005310;28;20079;-64
2021/06/19 05:32:08;;;;;;;7.30;5.32;;;;;;;20.33;90.03;96705.50;5005193;28;20045;-65
2021/06/19 05:34:34;;;;;;;6.30;4.40;;;;;;;20.41;88.95;96711.72;5005313;28;20419;-65
2021/06/19 05:36:59;;;;;;;8.90;4.53;;;;;;;20.25;88.75;96658.31;5004988;28;20111;-66
2021/06/19 05:39:25;;;;;;;5.18;3.70;;;;;;;20.51;88.10;96700.19;5004921;28;20092;-66
2021/06/19 05:41:50;;;;;;;6.93;3.47;;;;;;;20.80;86.61;96711.47;5004975;28;20030;-66
2021/06/19 05:44:16;;;;;;;7.22;4.25;;;;;;;21.07;86.27;96700.59;5005816;28;20034;-66
2021/06/19 05:46:41;;;;;;;5.60;3.97;;;;;;;21.12;85.49;96694.44;5004557;28;20041;-66
2021/06/19 05:49:07;;;;;;;4.18;3.78;;;;;;;21.40;84.71;96709.69;5004872;28;20495;-66
2021/06/19 05:51:32;;;;;;;5.75;4.30;;;;;;;21.65;81.35;96682.31;5004443;28;20520;-65
2021/06/19 05:53:58;;;;;;;6.22;4.70;;;;;;;21.98;80.33;96720.34;5005029;28;20428;-65
2021/06/19 05:56:23;;;;;;;5.88;4.07;;;;;;;21.85;78.77;96715.94;5002927;28;20029;-65
2021/06/19 05:58:49;;;;;;;6.80;4.10;;;;;;;21.23;81.60;96722.31;5004089;28;20523;-66
2021/06/19 06:01:14;;;;;;;3.88;3.47;;;;;;;20.18;85.29;96693.06;5004949;28;20091;-66
2021/06/19 06:03:40;;;;;;;6.13;4.22;;;;;;;20.34;86.47;96706.31;5005175;28;20034;-64
2021/06/19 06:06:05;;;;;;;6.88;4.15;;;;;;;20.82;85.93;96720.22;5004952;28;20037;-66
2021/06/19 06:08:31;;;;;;;6.07;4.72;;;;;;;20.31;89.10;96667.81;5006717;28;20045;-66
2021/06/19 06:10:56;;;;;;;5.28;4.78;;;;;;;20.18;91.57;96728.81;4999495;28;20037;-67
2021/06/19 06:13:22;;;;;;;6.03;4.80;;;;;;;19.82;94.52;96742.16;5005036;28;20044;-64
2021/06/19 06:15:48;;;;;;;6.50;5.85;;;;;;;19.53;97.95;96736.41;5004414;28;20658;-63
2021/06/19 06:18:13;;;;;;;6.57;4.65;;;;;;;19.92;97.19;96741.06;5010260;28;20139;-57
2021/06/19 06:20:39;;;;;;;6.53;5.05;;;;;;;19.92;95.03;96698.91;5020262;28;20607;-59
2021/06/19 06:23:04;;;;;;;6.65;5.20;;;;;;;20.30;94.36;96742.16;4996908;28;20526;-60
2021/06/19 06:25:30;;;;;;;4.93;4.50;;;;;;;19.98;89.37;96697.16;5004040;28;20121;-59
2021/06/19 06:27:56;;;;;;;9.75;5.00;;;;;;;19.23;96.98;96717.78;5008511;28;20038;-62
2021/06/19 06:30:22;;;;;;;5.68;5.00;;;;;;;19.48;100.00;96757.38;5009189;28;20503;-61
2021/06/19 06:32:47;;;;;;;8.27;6.25;;;;;;;19.23;100.00;96745.88;5009049;28;20057;-56
2021/06/19 06:35:13;;;;;;;10.45;6.47;;;;;;;19.49;100.00;96736.47;5008695;28;20030;-63
2021/06/19 06:37:39;;;;;;;7.82;5.95;;;;;;;19.63;98.91;96728.94;5012645;28;20049;-60
2021/06/19 06:40:07;;;;;;;6.53;5.93;;;;;;;19.54;98.79;96699.44;5011582;28;20613;-67
2021/06/19 06:42:32;;;;;;;8.65;6.13;;;;;;;19.37;99.74;96657.72;5020969;28;20040;-70
2021/06/19 06:44:58;;;;;;;7.03;5.63;;;;;;;19.85;99.30;96721.59;5009595;28;20026;-60
2021/06/19 06:47:24;;;;;;;6.20;5.25;;;;;;;20.17;97.74;96749.75;5003357;28;20548;-67
2021/06/19 06:49:49;;;;;;;7.63;5.30;;;;;;;19.71;99.11;96662.91;5012328;28;20041;-64
2021/06/19 06:52:15;;;;;;;8.48;5.10;;;;;;;20.23;99.34;96745.16;5006624;28;20610;-59
2021/06/19 06:54:40;;;;;;;10.15;5.68;;;;;;;20.22;100.00;96754.81;5015605;28;20029;-60
2021/06/19 06:57:10;;;;;;;6.25;5.25;;;;;;;20.11;100.00;96721.31;5004893;28;20072;-59
2021/06/19 06:59:36;;;;;;;9.63;4.93;;;;;;;20.34;100.00;96754.13;5014209;28;20034;-64
2021/06/19 07:02:03;;;;;;;5.97;5.18;;;;;;;20.35;100.00;96750.06;5009382;28;20091;-61
2021/06/19 07:04:29;;;;;;;6.70;5.35;;;;;;;20.05;99.93;96678.09;5004155;28;20045;-62
2021/06/19 07:06:54;;;;;;;6.47;5.78;;;;;;;20.38;97.43;96701.34;5009379;28;20030;-62
2021/06/19 07:09:20;;;;;;;5.93;4.38;;;;;;;20.72;96.69;96739.00;5013790;28;20040;-61
2021/06/19 07:11:45;;;;;;;6.65;4.60;;;;;;;20.89;96.81;96740.56;5008092;28;20030;-64
2021/06/19 07:14:11;;;;;;;6.00;5.18;;;;;;;21.22;95.00;96732.78;5006045;28;20451;-58
2021/06/19 07:16:36;;;;;;;6.40;4.60;;;;;;;21.22;92.00;96707.41;5017996;28;20034;-61
2021/06/19 07:19:02;;;;;;;5.22;4.82;;;;;;;21.27;91.14;96740.69;5008836;28;20196;-59
2021/06/19 07:21:29;;;;;;;7.63;5.10;;;;;;;21.26;92.11;96750.34;5007186;28;20038;-65
2021/06/19 07:23:55;;;;;;;5.25;4.55;;;;;;;21.16;91.31;96745.03;5007488;28;20029;-61
2021/06/19 07:26:20;;;;;;;6.38;5.05;;;;;;;20.94;91.90;96733.56;5023211;28;20033;-62
2021/06/19 07:28:46;;;;;;;8.25;5.20;;;;;;;20.92;92.62;96752.94;5016110;28;20050;-62
2021/06/19 07:31:12;;;;;;;7.63;5.55;;;;;;;20.68;94.53;96768.47;5007415;28;20140;-59
2021/06/19 07:33:38;;;;;;;6.75;4.45;;;;;;;20.59;93.30;96757.88;5007897;28;20046;-57
2021/06/19 07:36:04;;;;;;;5.47;4.90;;;;;;;20.45;93.96;96757.47;5006456;28;20107;-62
2021/06/19 07:38:31;;;;;;;6.70;5.50;;;;;;;20.37;94.63;96750.44;5007855;28;20042;-59
2021/06/19 07:40:57;;;;;;;7.25;4.80;;;;;;;20.25;96.67;96759.59;5002482;28;20079;-57
2021/06/19 07:43:23;;;;;;;13.18;6.85;;;;;;;20.07;96.38;96747.94;5008751;28;20033;-60
2021/06/19 07:45:49;;;;;;;8.63;6.07;;;;;;;20.06;96.96;96757.63;5005836;28;20042;-61
2021/06/19 07:48:15;;;;;;;6.65;5.63;;;;;;;19.53;96.91;96674.59;5022531;28;20041;-60
2021/06/19 07:50:41;;;;;;;12.35;5.75;;;;;;;20.08;98.37;96772.03;5020917;28;20079;-64
2021/06/19 07:53:07;;;;;;;13.00;8.05;;;;;;;19.68;97.31;96736.88;5021626;28;20419;-63
2021/06/19 07:55:32;;;;;;;25.60;11.77;;;;;;;19.98;98.66;96768.25;5011052;28;20129;-62
2021/06/19 07:57:59;;;;;;;6.70;5.43;;;;;;;18.12;97.30;96497.31;5002962;28;20042;-62
2021/06/19 08:00:25;;;;;;;4.30;4.00;;;;;;;19.74;99.66;96774.47;5003115;28;20038;-62
2021/06/19 08:02:51;;;;;;;4.40;4.00;;;;;;;18.10;98.52;96522.16;5003220;28;20043;-63
2021/06/19 08:05:17;;;;;;;16.00;8.18;;;;;;;19.72;99.65;96772.09;5002842;28;20038;-58
2021/06/19 08:07:42;;;;;;;8.25;5.13;;;;;;;19.64;98.58;96772.69;5002881;28;20053;-59
2021/06/19 08:10:09;;;;;;;10.05;6.22;;;;;;;19.51;100.00;96761.31;5004042;28;20084;-63
2021/06/19 08:12:35;;;;;;;6.57;3.97;;;;;;;19.55;100.00;96785.31;5016412;28;20126;-60
2021/06/19 08:15:02;;;;;;;5.82;4.10;;;;;;;19.43;100.00;96771.94;5009914;28;20038;-61
2021/06/19 08:17:28;;;;;;;4.95;4.40;;;;;;;19.15;100.00;96744.44;5022466;28;20046;-59
2021/06/19 08:19:53;;;;;;;5.20;4.10;;;;;;;19.19;100.00;96762.00;5004567;28;20030;-60
2021/06/19 08:22:19;;;;;;;5.32;3.58;;;;;;;19.16;100.00;96784.53;5013039;28;20064;-61
2021/06/19 08:24:47;;;;;;;6.55;3.80;;;;;;;19.01;100.00;96820.53;5006351;28;20097;-63
2021/06/19 08:27:13;;;;;;;3.90;2.70;;;;;;;18.96;100.00;96787.34;5006571;28;20061;-62
2021/06/19 08:29:38;;;;;;;6.55;4.03;;;;;;;18.96;100.00;96784.53;5006137;28;20153;-62
2021/06/19 08:32:04;;;;;;;7.13;4.47;;;;;;;18.09;100.00;96688.78;5018781;28;20109;-57
2021/06/19 08:34:30;;;;;;;5.95;3.65;;;;;;;18.84;100.00;96782.34;5006803;28;20045;-59
2021/06/19 08:36:55;;;;;;;8.07;3.45;;;;;;;18.75;100.00;96758.88;5007346;28;20034;-62
2021/06/19 08:39:21;;;;;;;3.88;3.05;;;;;;;18.95;100.00;96791.38;5019469;28;20141;-60
2021/06/19 08:41:49;;;;;;;4.78;2.80;;;;;;;17.98;100.00;96637.75;5018672;28;20033;-61
2021/06/19 08:44:24;;;;;;;3.10;2.80;;;;;;;19.00;100.00;96776.06;5011409;28;20034;-63
2021/06/19 08:46:51;;;;;;;5.72;3.08;;;;;;;19.19;100.00;96794.91;5016421;28;20033;-65
2021/06/19 08:49:19;;;;;;;5.70;3.05;;;;;;;18.70;100.00;96701.25;5004183;28;20264;-63
2021/06/19 08:51:45;;;;;;;4.72;2.95;;;;;;;19.22;100.00;96744.28;5020441;28;20041;-63
2021/06/19 08:54:12;;;;;;;4.03;3.55;;;;;;;19.18;100.00;96749.19;5010378;28;20467;-63
2021/06/19 08:56:40;;;;;;;4.50;3.97;;;;;;;19.68;100.00;96776.22;5009065;28;20034;-67
2021/06/19 08:59:05;;;;;;;5.63;3.80;;;;;;;19.82;100.00;96778.69;5005236;28;20148;-66
2021/06/19 09:01:31;;;;;;;4.95;4.25;;;;;;;20.12;100.00;96781.94;5020612;28;20132;-65
2021/06/19 09:03:56;;;;;;;3.63;2.97;;;;;;;19.58;100.00;96642.34;5009570;28;20095;-65
2021/06/19 09:06:27;;;;;;;6.18;5.00;;;;;;;20.60;95.83;96755.84;5009939;28;20076;-60
2021/06/19 09:08:59;;;;;;;3.42;3.13;;;;;;;20.89;93.71;96753.84;5008061;28;20049;-65
2021/06/19 09:11:29;;;;;;;4.20;2.90;;;;;;;21.12;92.97;96750.78;5007367;28;20081;-60
2021/06/19 09:14:11;;;;;;;2.70;2.20;;;;;;;21.12;90.58;96739.50;5011544;28;20594;-60
2021/06/19 09:16:40;;;;;;;2.95;2.65;;;;;;;21.18;88.77;96698.28;5006533;28;20500;-61
2021/06/19 09:19:37;;;;;;;3.60;2.40;;;;;;;21.50;86.85;96743.19;5018320;28;20100;-64
2021/06/19 09:22:17;;;;;;;2.50;2.38;;;;;;;21.41;90.16;96743.06;5004990;28;20042;-65
2021/06/19 09:24:49;;;;;;;8.85;2.90;;;;;;;21.38;88.87;96735.50;5016031;28;20102;-65
2021/06/19 09:27:45;;;;;;;3.42;3.08;;;;;;;21.96;88.90;96751.03;5024372;28;20573;-63
2021/06/19 09:30:15;;;;;;;2.22;2.13;;;;;;;22.03;84.01;96752.81;5015742;28;20129;-61
2021/06/19 09:32:51;;;;;;;3.92;2.45;;;;;;;21.85;85.63;96759.03;5007436;28;20053;-60
2021/06/19 09:35:24;;;;;;;5.15;3.15;;;;;;;21.79;87.72;96755.19;5003198;28;20092;-59
2021/06/19 09:37:51;;;;;;;3.63;2.83;;;;;;;20.68;84.89;96585.50;5017868;28;20038;-58
2021/06/19 09:40:22;;;;;;;3.13;2.30;;;;;;;21.58;86.57;96761.47;5022988;28;20040;-58
2021/06/19 09:42:48;;;;;;;4.07;2.60;;;;;;;21.62;87.52;96761.38;5024517;28;20109;-61
2021/06/19 09:45:24;;;;;;;2.70;2.25;;;;;;;21.55;88.32;96756.72;5024074;28;20036;-60
2021/06/19 09:47:50;;;;;;;2.50;2.30;;;;;;;21.54;88.68;96755.16;5023371;28;20167;-60
2021/06/19 09:50:20;;;;;;;6.15;2.97;;;;;;;21.34;89.54;96763.00;5024587;28;20034;-62
2021/06/19 09:52:46;;;;;;;3.95;2.50;;;;;;;21.19;92.76;96761.84;5023339;28;20049;-59
2021/06/19 09:55:14;;;;;;;3.20;2.90;;;;;;;21.27;92.82;96766.03;5024572;28;20029;-59
2021/06/19 09:57:50;;;;;;;5.38;3.28;;;;;;;20.94;93.18;96733.56;5023249;28;20121;-59
2021/06/19 10:00:17;;;;;;;3.83;3.53;;;;;;;20.70;94.58;96695.66;5024468;28;20068;-59
2021/06/19 10:02:44;;;;;;;3.95;3.53;;;;;;;21.02;95.04;96751.09;5025375;28;20028;-58
2021/06/19 10:05:11;;;;;;;2.97;2.75;;;;;;;21.04;94.44;96749.41;5022663;28;20037;-60
2021/06/19 10:07:37;;;;;;;5.97;3.22;;;;;;;21.20;94.74;96759.84;5024324;28;20488;-60
2021/06/19 10:10:06;;;;;;;4.15;3.47;;;;;;;21.60;92.59;96744.91;5024200;28;20076;-59
2021/06/19 10:12:34;;;;;;;4.05;3.50;;;;;;;22.00;89.40;96746.03;5024249;28;20021;-59
2021/06/19 10:15:01;;;;;;;3.28;3.08;;;;;;;21.91;87.82;96745.94;5024797;28;20041;-60
2021/06/19 10:17:43;;;;;;;6.85;3.05;;;;;;;21.74;85.44;96747.28;5023856;28;20033;-60
2021/06/19 10:20:12;;;;;;;3.50;3.20;;;;;;;21.88;85.08;96752.50;5024282;28;20428;-60
2021/06/19 10:22:40;;;;;;;2.88;2.67;;;;;;;21.90;84.73;96750.00;5024830;28;20151;-59
2021/06/19 10:25:10;;;;;;;6.30;2.90;;;;;;;22.12;86.02;96759.38;5023180;28;20532;-59
2021/06/19 10:27:38;;;;;;;3.85;3.25;;;;;;;22.27;82.72;96780.22;5020123;28;20030;-59
2021/06/19 10:30:06;;;;;;;3.67;3.20;;;;;;;22.22;83.38;96698.19;5003400;28;20084;-60
2021/06/19 10:32:51;;;;;;;4.03;3.58;;;;;;;22.83;81.52;96737.19;5004634;28;20413;-59
2021/06/19 10:35:18;;;;;;;3.03;2.83;;;;;;;22.82;78.52;96691.22;5002526;28;20433;-58
2021/06/19 10:37:45;;;;;;;5.85;5.25;;;;;;;22.69;78.01;96709.44;5004697;28;20041;-58
2021/06/19 10:40:23;;;;;;;8.30;3.00;;;;;;;23.32;74.05;96724.06;5004376;28;20504;-59
2021/06/19 10:42:51;;;;;;;4.30;3.20;;;;;;;23.61;71.25;96718.91;5002585;28;20073;-57
2021/06/19 10:45:30;;;;;;;6.40;4.20;;;;;;;23.95;70.24;96727.22;5003720;28;20606;-58
2021/06/19 10:48:13;;;;;;;4.38;3.97;;;;;;;23.67;69.39;96715.00;5004251;28;20029;-58
2021/06/19 10:50:49;;;;;;;4.78;4.20;;;;;;;23.22;73.90;96672.31;5003270;28;20038;-60
2021/06/19 10:53:20;;;;;;;6.50;4.97;;;;;;;23.85;71.28;96694.50;5001644;28;20030;-60
2021/06/19 10:55:53;;;;;;;11.75;6.93;;;;;;;24.08;73.78;96702.44;5003865;28;20121;-61
2021/06/19 10:58:27;;;;;;;3.13;2.83;;;;;;;23.82;73.42;96701.09;5004275;28;20157;-58
2021/06/19 11:00:56;;;;;;;2.95;2.75;;;;;;;23.09;71.14;96694.25;5003469;28;20037;-61
2021/06/19 11:03:45;;;;;;;2.83;2.63;;;;;;;22.35;80.87;96698.94;5003321;28;20042;-58
2021/06/19 11:06:25;;;;;;;2.50;2.30;;;;;;;21.47;85.17;96704.63;5003442;28;20036;-59
2021/06/19 11:09:16;;;;;;;4.18;3.78;;;;;;;21.55;84.47;96703.16;5003608;28;20038;-60
2021/06/19 11:12:02;;;;;;;3.92;3.15;;;;;;;21.44;87.52;96705.53;5003296;28;20533;-59
2021/06/19 11:14:39;;;;;;;2.85;2.65;;;;;;;20.95;89.16;96706.97;5003988;28;20046;-60
2021/06/19 11:17:26;;;;;;;3.38;3.00;;;;;;;20.88;88.79;96691.09;5003744;28;20041;-59
2021/06/19 11:20:02;;;;;;;3.40;2.72;;;;;;;20.75;90.25;96703.56;4986052;28;20070;-60
2021/06/19 11:22:30;;;;;;;3.60;3.30;;;;;;;20.99;90.73;96690.81;5003576;28;20040;-58
2021/06/19 11:25:18;;;;;;;3.95;3.50;;;;;;;21.06;88.44;96690.59;5003511;28;20042;-60
2021/06/19 11:28:00;;;;;;;5.53;5.03;;;;;;;21.43;88.00;96684.22;4990377;28;20050;-59
2021/06/19 11:30:38;;;;;;;5.50;5.00;;;;;;;21.63;81.06;96679.16;5003041;28;20041;-59
2021/06/19 11:33:15;;;;;;;5.90;5.38;;;;;;;21.95;80.00;96666.84;5004242;28;20519;-58